sensor_id;sensor_type;location;lat;lon;timestamp;pressure;altitude;pressure_sealevel;temperature;humidity
24154;BME280;12312;53.362;-1.518;2023-04-30T00:00:36;99695.53;;;12.19;100.00
24154;BME280;12312;53.362;-1.518;2023-04-30T00:03:20;99692.78;;;12.20;100.00
24154;BME280;12312;53.362;-1.518;2023-04-30T00:06:04;99690.31;;;12.53;100.00
24154;BME280;12312;53.362;-1.518;2023-04-30T00:08:48;99692.06;;;12.54;100.00
24154;BME280;12312;53.362;-1.518;2023-04-30T00:11:32;99687.84;;;12.63;100.00
24154;BME280;12312;53.362;-1.518;2023-04-30T00:14:16;99686.19;;;12.13;100.00
24154;BME280;12312;53.362;-1.518;2023-04-30T00:17:00;99674.53;;;12.50;100.00
24154;BME280;12312;53.362;-1.518;2023-04-30T00:19:44;99681.59;;;12.51;100.00
24154;BME280;12312;53.362;-1.518;2023-04-30T00:22:28;99686.78;;;12.29;100.00
24154;BME280;12312;53.362;-1.518;2023-04-30T00:25:12;99683.97;;;12.43;100.00
24154;BME280;12312;53.362;-1.518;2023-04-30T00:27:56;99683.31;;;12.40;100.00
24154;BME280;12312;53.362;-1.518;2023-04-30T00:30:41;99681.38;;;12.54;100.00
24154;BME280;12312;53.362;-1.518;2023-04-30T00:33:25;99683.78;;;12.21;100.00
24154;BME280;12312;53.362;-1.518;2023-04-30T00:36:09;99675.84;;;11.96;100.00
24154;BME280;12312;53.362;-1.518;2023-04-30T00:38:53;99675.44;;;12.26;100.00
24154;BME280;12312;53.362;-1.518;2023-04-30T00:41:39;99679.88;;;12.02;100.00
24154;BME280;12312;53.362;-1.518;2023-04-30T00:44:24;99674.72;;;12.24;100.00
24154;BME280;12312;53.362;-1.518;2023-04-30T00:47:08;99683.56;;;12.24;100.00
24154;BME280;12312;53.362;-1.518;2023-04-30T00:49:53;99676.31;;;12.26;100.00
24154;BME280;12312;53.362;-1.518;2023-04-30T00:52:37;99668.84;;;12.31;100.00
24154;BME280;12312;53.362;-1.518;2023-04-30T00:55:21;99672.97;;;11.99;100.00
24154;BME280;12312;53.362;-1.518;2023-04-30T00:58:06;99671.59;;;11.81;100.00
24154;BME280;12312;53.362;-1.518;2023-04-30T01:00:51;99666.94;;;12.33;100.00
24154;BME280;12312;53.362;-1.518;2023-04-30T01:03:35;99666.75;;;12.11;100.00
24154;BME280;12312;53.362;-1.518;2023-04-30T01:06:20;99675.53;;;11.63;100.00
24154;BME280;12312;53.362;-1.518;2023-04-30T01:09:04;99659.38;;;12.15;100.00
24154;BME280;12312;53.362;-1.518;2023-04-30T01:15:03;99667.72;;;11.60;100.00
24154;BME280;12312;53.362;-1.518;2023-04-30T01:20:47;99667.28;;;11.54;100.00
24154;BME280;12312;53.362;-1.518;2023-04-30T01:29:19;99657.16;;;11.46;100.00
24154;BME280;12312;53.362;-1.518;2023-04-30T01:32:06;99664.81;;;11.38;100.00
24154;BME280;12312;53.362;-1.518;2023-04-30T01:34:50;99657.38;;;11.56;100.00
24154;BME280;12312;53.362;-1.518;2023-04-30T01:46:27;99649.88;;;11.23;100.00
24154;BME280;12312;53.362;-1.518;2023-04-30T01:52:45;99649.69;;;11.39;100.00
24154;BME280;12312;53.362;-1.518;2023-04-30T01:55:42;99644.25;;;11.28;100.00
24154;BME280;12312;53.362;-1.518;2023-04-30T01:58:26;99647.53;;;11.19;100.00
24154;BME280;12312;53.362;-1.518;2023-04-30T02:01:32;99639.47;;;11.70;100.00
24154;BME280;12312;53.362;-1.518;2023-04-30T02:04:16;99637.16;;;11.78;100.00
24154;BME280;12312;53.362;-1.518;2023-04-30T02:07:00;99640.03;;;11.75;100.00
24154;BME280;12312;53.362;-1.518;2023-04-30T02:09:44;99629.44;;;11.36;100.00
24154;BME280;12312;53.362;-1.518;2023-04-30T02:12:29;99628.59;;;11.48;100.00
24154;BME280;12312;53.362;-1.518;2023-04-30T02:15:13;99632.19;;;11.22;100.00
24154;BME280;12312;53.362;-1.518;2023-04-30T02:17:57;99638.38;;;11.10;100.00
24154;BME280;12312;53.362;-1.518;2023-04-30T02:20:42;99638.16;;;11.13;100.00
24154;BME280;12312;53.362;-1.518;2023-04-30T02:23:26;99634.56;;;11.39;100.00
24154;BME280;12312;53.362;-1.518;2023-04-30T02:26:10;99633.91;;;11.61;100.00
24154;BME280;12312;53.362;-1.518;2023-04-30T02:28:54;99634.38;;;11.67;100.00
24154;BME280;12312;53.362;-1.518;2023-04-30T02:31:38;99629.25;;;11.64;100.00
24154;BME280;12312;53.362;-1.518;2023-04-30T02:34:22;99628.81;;;11.45;100.00
24154;BME280;12312;53.362;-1.518;2023-04-30T02:37:08;99617.50;;;11.29;100.00
24154;BME280;12312;53.362;-1.518;2023-04-30T02:39:52;99633.66;;;11.14;100.00
24154;BME280;12312;53.362;-1.518;2023-04-30T02:42:36;99623.44;;;11.20;100.00
24154;BME280;12312;53.362;-1.518;2023-04-30T02:45:21;99623.66;;;11.17;100.00
24154;BME280;12312;53.362;-1.518;2023-04-30T02:48:05;99620.38;;;11.51;100.00
24154;BME280;12312;53.362;-1.518;2023-04-30T02:50:49;99614.84;;;11.67;100.00
24154;BME280;12312;53.362;-1.518;2023-04-30T02:53:33;99612.63;;;12.09;100.00
24154;BME280;12312;53.362;-1.518;2023-04-30T02:56:18;99612.06;;;11.81;100.00
24154;BME280;12312;53.362;-1.518;2023-04-30T02:59:02;99602.53;;;12.02;100.00
24154;BME280;12312;53.362;-1.518;2023-04-30T03:01:46;99612.06;;;12.17;100.00
24154;BME280;12312;53.362;-1.518;2023-04-30T03:04:30;99615.69;;;12.28;100.00
24154;BME280;12312;53.362;-1.518;2023-04-30T03:07:16;99611.38;;;12.38;100.00
24154;BME280;12312;53.362;-1.518;2023-04-30T03:10:00;99608.22;;;12.33;100.00
24154;BME280;12312;53.362;-1.518;2023-04-30T03:12:44;99609.97;;;12.09;100.00
24154;BME280;12312;53.362;-1.518;2023-04-30T03:15:31;99602.56;;;12.25;100.00
24154;BME280;12312;53.362;-1.518;2023-04-30T03:18:15;99596.75;;;12.08;100.00
24154;BME280;12312;53.362;-1.518;2023-04-30T03:20:59;99603.00;;;11.83;100.00
24154;BME280;12312;53.362;-1.518;2023-04-30T03:23:43;99601.28;;;11.82;100.00
24154;BME280;12312;53.362;-1.518;2023-04-30T03:26:28;99600.19;;;11.97;100.00
24154;BME280;12312;53.362;-1.518;2023-04-30T03:29:11;99599.28;;;12.09;100.00
24154;BME280;12312;53.362;-1.518;2023-04-30T03:31:56;99593.41;;;12.17;100.00
24154;BME280;12312;53.362;-1.518;2023-04-30T03:34:40;99601.75;;;12.12;100.00
24154;BME280;12312;53.362;-1.518;2023-04-30T03:37:24;99597.41;;;11.99;100.00
24154;BME280;12312;53.362;-1.518;2023-04-30T03:40:08;99591.47;;;11.95;100.00
24154;BME280;12312;53.362;-1.518;2023-04-30T03:42:53;99594.56;;;11.89;100.00
24154;BME280;12312;53.362;-1.518;2023-04-30T03:45:37;99594.78;;;11.86;100.00
24154;BME280;12312;53.362;-1.518;2023-04-30T03:48:21;99591.59;;;11.69;100.00
24154;BME280;12312;53.362;-1.518;2023-04-30T03:51:05;99594.78;;;11.61;100.00
24154;BME280;12312;53.362;-1.518;2023-04-30T03:53:49;99598.75;;;11.43;100.00
24154;BME280;12312;53.362;-1.518;2023-04-30T03:56:33;99593.09;;;11.60;100.00
24154;BME280;12312;53.362;-1.518;2023-04-30T03:59:18;99597.88;;;11.55;100.00
24154;BME280;12312;53.362;-1.518;2023-04-30T04:02:03;99602.88;;;11.47;100.00
24154;BME280;12312;53.362;-1.518;2023-04-30T04:04:48;99603.34;;;11.66;100.00
24154;BME280;12312;53.362;-1.518;2023-04-30T04:07:33;99595.25;;;11.68;100.00
24154;BME280;12312;53.362;-1.518;2023-04-30T04:10:17;99600.00;;;11.50;100.00
24154;BME280;12312;53.362;-1.518;2023-04-30T04:13:01;99610.16;;;11.45;100.00
24154;BME280;12312;53.362;-1.518;2023-04-30T04:15:45;99605.13;;;11.53;100.00
24154;BME280;12312;53.362;-1.518;2023-04-30T04:18:29;99599.94;;;11.64;100.00
24154;BME280;12312;53.362;-1.518;2023-04-30T04:21:15;99605.25;;;11.64;100.00
24154;BME280;12312;53.362;-1.518;2023-04-30T04:23:59;99602.59;;;11.64;100.00
24154;BME280;12312;53.362;-1.518;2023-04-30T04:26:51;99604.94;;;11.81;100.00
24154;BME280;12312;53.362;-1.518;2023-04-30T04:29:36;99599.97;;;12.00;100.00
24154;BME280;12312;53.362;-1.518;2023-04-30T04:32:20;99604.25;;;11.90;100.00
24154;BME280;12312;53.362;-1.518;2023-04-30T04:35:05;99598.28;;;11.99;100.00
24154;BME280;12312;53.362;-1.518;2023-04-30T04:37:49;99596.63;;;12.09;100.00
24154;BME280;12312;53.362;-1.518;2023-04-30T04:40:33;99600.16;;;12.10;100.00
24154;BME280;12312;53.362;-1.518;2023-04-30T04:43:18;99601.50;;;12.15;100.00
24154;BME280;12312;53.362;-1.518;2023-04-30T04:46:03;99590.84;;;12.15;100.00
24154;BME280;12312;53.362;-1.518;2023-04-30T04:48:48;99600.69;;;12.38;100.00
24154;BME280;12312;53.362;-1.518;2023-04-30T04:51:32;99591.97;;;12.36;100.00
24154;BME280;12312;53.362;-1.518;2023-04-30T04:54:16;99590.25;;;12.35;100.00
24154;BME280;12312;53.362;-1.518;2023-04-30T04:57:00;99585.34;;;12.29;100.00
24154;BME280;12312;53.362;-1.518;2023-04-30T04:59:45;99592.63;;;12.27;100.00
24154;BME280;12312;53.362;-1.518;2023-04-30T05:02:29;99585.25;;;12.31;100.00
24154;BME280;12312;53.362;-1.518;2023-04-30T05:05:14;99585.06;;;12.21;100.00
24154;BME280;12312;53.362;-1.518;2023-04-30T05:07:58;99584.50;;;12.29;100.00
24154;BME280;12312;53.362;-1.518;2023-04-30T05:10:43;99586.41;;;12.39;100.00
24154;BME280;12312;53.362;-1.518;2023-04-30T05:13:27;99586.22;;;12.30;100.00
24154;BME280;12312;53.362;-1.518;2023-04-30T05:16:13;99586.19;;;12.53;100.00
24154;BME280;12312;53.362;-1.518;2023-04-30T05:18:57;99584.28;;;12.32;100.00
24154;BME280;12312;53.362;-1.518;2023-04-30T05:21:40;99579.34;;;12.38;100.00
24154;BME280;12312;53.362;-1.518;2023-04-30T05:24:25;99581.94;;;12.27;100.00
24154;BME280;12312;53.362;-1.518;2023-04-30T05:27:09;99582.16;;;12.24;100.00
24154;BME280;12312;53.362;-1.518;2023-04-30T05:29:53;99572.53;;;12.34;100.00
24154;BME280;12312;53.362;-1.518;2023-04-30T05:32:37;99586.63;;;12.36;100.00
24154;BME280;12312;53.362;-1.518;2023-04-30T05:35:21;99576.25;;;12.08;100.00
24154;BME280;12312;53.362;-1.518;2023-04-30T05:38:05;99582.38;;;12.21;100.00
24154;BME280;12312;53.362;-1.518;2023-04-30T05:40:49;99567.91;;;12.13;100.00
24154;BME280;12312;53.362;-1.518;2023-04-30T05:43:33;99573.06;;;12.03;100.00
24154;BME280;12312;53.362;-1.518;2023-04-30T05:46:17;99582.78;;;12.04;100.00
24154;BME280;12312;53.362;-1.518;2023-04-30T05:49:02;99578.19;;;12.06;100.00
24154;BME280;12312;53.362;-1.518;2023-04-30T05:51:46;99572.47;;;12.00;100.00
24154;BME280;12312;53.362;-1.518;2023-04-30T05:54:30;99575.22;;;11.98;100.00
24154;BME280;12312;53.362;-1.518;2023-04-30T05:57:14;99579.50;;;11.88;100.00
24154;BME280;12312;53.362;-1.518;2023-04-30T05:59:59;99576.06;;;11.99;100.00
24154;BME280;12312;53.362;-1.518;2023-04-30T06:02:43;99578.84;;;11.97;100.00
24154;BME280;12312;53.362;-1.518;2023-04-30T06:05:27;99586.91;;;12.21;100.00
24154;BME280;12312;53.362;-1.518;2023-04-30T06:08:10;99584.84;;;11.88;100.00
24154;BME280;12312;53.362;-1.518;2023-04-30T06:10:55;99591.50;;;12.06;100.00
24154;BME280;12312;53.362;-1.518;2023-04-30T06:13:39;99589.94;;;12.04;100.00
24154;BME280;12312;53.362;-1.518;2023-04-30T06:16:23;99588.41;;;12.12;100.00
24154;BME280;12312;53.362;-1.518;2023-04-30T06:19:07;99583.72;;;12.03;100.00
24154;BME280;12312;53.362;-1.518;2023-04-30T06:21:51;99595.03;;;12.07;100.00
24154;BME280;12312;53.362;-1.518;2023-04-30T06:24:35;99585.91;;;11.98;100.00
24154;BME280;12312;53.362;-1.518;2023-04-30T06:27:24;99586.13;;;11.95;100.00
24154;BME280;12312;53.362;-1.518;2023-04-30T06:30:16;99592.91;;;12.12;100.00
24154;BME280;12312;53.362;-1.518;2023-04-30T06:33:02;99593.72;;;12.12;100.00
24154;BME280;12312;53.362;-1.518;2023-04-30T06:35:46;99580.72;;;12.08;100.00
24154;BME280;12312;53.362;-1.518;2023-04-30T06:38:30;99583.50;;;12.06;100.00
24154;BME280;12312;53.362;-1.518;2023-04-30T06:41:14;99585.25;;;12.07;100.00
24154;BME280;12312;53.362;-1.518;2023-04-30T06:43:59;99581.81;;;12.05;100.00
24154;BME280;12312;53.362;-1.518;2023-04-30T06:46:43;99588.84;;;12.06;100.00
24154;BME280;12312;53.362;-1.518;2023-04-30T06:49:28;99573.25;;;12.13;100.00
24154;BME280;12312;53.362;-1.518;2023-04-30T06:52:12;99572.09;;;12.40;100.00
24154;BME280;12312;53.362;-1.518;2023-04-30T06:54:56;99580.19;;;12.63;100.00
24154;BME280;12312;53.362;-1.518;2023-04-30T06:57:40;99578.84;;;12.57;100.00
24154;BME280;12312;53.362;-1.518;2023-04-30T07:00:24;99583.19;;;12.82;100.00
24154;BME280;12312;53.362;-1.518;2023-04-30T07:03:09;99585.38;;;12.88;100.00
24154;BME280;12312;53.362;-1.518;2023-04-30T07:05:53;99585.50;;;12.86;100.00
24154;BME280;12312;53.362;-1.518;2023-04-30T07:08:37;99594.69;;;13.06;100.00
24154;BME280;12312;53.362;-1.518;2023-04-30T07:11:24;99580.66;;;13.26;100.00
24154;BME280;12312;53.362;-1.518;2023-04-30T07:14:08;99582.59;;;13.24;100.00
24154;BME280;12312;53.362;-1.518;2023-04-30T07:16:53;99573.34;;;13.17;100.00
24154;BME280;12312;53.362;-1.518;2023-04-30T07:19:39;99576.66;;;13.31;100.00
24154;BME280;12312;53.362;-1.518;2023-04-30T07:22:25;99570.91;;;13.25;100.00
24154;BME280;12312;53.362;-1.518;2023-04-30T07:25:14;99582.63;;;13.57;100.00
24154;BME280;12312;53.362;-1.518;2023-04-30T07:27:59;99582.34;;;13.27;100.00
24154;BME280;12312;53.362;-1.518;2023-04-30T07:30:43;99571.31;;;13.31;100.00
24154;BME280;12312;53.362;-1.518;2023-04-30T07:33:27;99575.44;;;13.46;100.00
24154;BME280;12312;53.362;-1.518;2023-04-30T07:36:12;99577.41;;;13.44;100.00
24154;BME280;12312;53.362;-1.518;2023-04-30T07:38:56;99573.66;;;13.58;100.00
24154;BME280;12312;53.362;-1.518;2023-04-30T07:41:40;99575.81;;;13.53;100.00
24154;BME280;12312;53.362;-1.518;2023-04-30T07:44:24;99570.84;;;13.59;100.00
24154;BME280;12312;53.362;-1.518;2023-04-30T07:47:08;99569.38;;;13.77;100.00
24154;BME280;12312;53.362;-1.518;2023-04-30T07:49:52;99568.78;;;13.96;100.00
24154;BME280;12312;53.362;-1.518;2023-04-30T07:52:36;99566.56;;;14.01;100.00
24154;BME280;12312;53.362;-1.518;2023-04-30T07:55:20;99574.69;;;14.21;100.00
24154;BME280;12312;53.362;-1.518;2023-04-30T07:58:04;99571.44;;;13.85;100.00
24154;BME280;12312;53.362;-1.518;2023-04-30T08:00:49;99566.72;;;13.88;100.00
24154;BME280;12312;53.362;-1.518;2023-04-30T08:03:33;99578.63;;;13.95;100.00
24154;BME280;12312;53.362;-1.518;2023-04-30T08:06:18;99574.72;;;13.99;100.00
24154;BME280;12312;53.362;-1.518;2023-04-30T08:09:01;99571.41;;;14.07;100.00
24154;BME280;12312;53.362;-1.518;2023-04-30T08:11:46;99573.38;;;13.83;100.00
24154;BME280;12312;53.362;-1.518;2023-04-30T08:14:31;99573.38;;;13.94;100.00
24154;BME280;12312;53.362;-1.518;2023-04-30T08:17:15;99564.16;;;13.76;100.00
24154;BME280;12312;53.362;-1.518;2023-04-30T08:20:00;99571.16;;;14.10;100.00
24154;BME280;12312;53.362;-1.518;2023-04-30T08:22:45;99566.56;;;14.01;100.00
24154;BME280;12312;53.362;-1.518;2023-04-30T08:25:30;99566.47;;;13.91;100.00
24154;BME280;12312;53.362;-1.518;2023-04-30T08:28:14;99574.00;;;13.86;100.00
24154;BME280;12312;53.362;-1.518;2023-04-30T08:30:58;99566.59;;;13.79;100.00
24154;BME280;12312;53.362;-1.518;2023-04-30T08:33:42;99560.88;;;13.61;100.00
24154;BME280;12312;53.362;-1.518;2023-04-30T08:36:26;99560.75;;;13.85;100.00
24154;BME280;12312;53.362;-1.518;2023-04-30T08:39:10;99566.34;;;13.82;100.00
24154;BME280;12312;53.362;-1.518;2023-04-30T08:41:55;99563.13;;;14.10;100.00
24154;BME280;12312;53.362;-1.518;2023-04-30T08:44:40;99566.53;;;14.23;100.00
24154;BME280;12312;53.362;-1.518;2023-04-30T08:47:26;99559.69;;;14.41;100.00
24154;BME280;12312;53.362;-1.518;2023-04-30T08:50:11;99563.34;;;14.40;100.00
24154;BME280;12312;53.362;-1.518;2023-04-30T08:52:57;99566.16;;;14.70;100.00
24154;BME280;12312;53.362;-1.518;2023-04-30T08:55:42;99565.47;;;14.57;100.00
24154;BME280;12312;53.362;-1.518;2023-04-30T08:58:25;99565.66;;;14.45;100.00
24154;BME280;12312;53.362;-1.518;2023-04-30T09:01:10;99558.41;;;14.24;100.00
24154;BME280;12312;53.362;-1.518;2023-04-30T09:03:54;99561.00;;;14.47;100.00
24154;BME280;12312;53.362;-1.518;2023-04-30T09:06:38;99562.75;;;14.37;100.00
24154;BME280;12312;53.362;-1.518;2023-04-30T09:09:27;99564.81;;;14.65;100.00
24154;BME280;12312;53.362;-1.518;2023-04-30T09:12:16;99563.56;;;14.48;100.00
24154;BME280;12312;53.362;-1.518;2023-04-30T09:15:04;99570.47;;;14.82;100.00
24154;BME280;12312;53.362;-1.518;2023-04-30T09:17:48;99557.41;;;14.89;100.00
24154;BME280;12312;53.362;-1.518;2023-04-30T09:20:32;99569.16;;;14.45;100.00
24154;BME280;12312;53.362;-1.518;2023-04-30T09:23:18;99567.25;;;14.68;100.00
24154;BME280;12312;53.362;-1.518;2023-04-30T09:26:02;99570.13;;;14.76;100.00
24154;BME280;12312;53.362;-1.518;2023-04-30T09:28:56;99574.38;;;14.78;100.00
24154;BME280;12312;53.362;-1.518;2023-04-30T09:31:45;99559.28;;;14.77;100.00
24154;BME280;12312;53.362;-1.518;2023-04-30T09:34:33;99567.06;;;14.80;100.00
24154;BME280;12312;53.362;-1.518;2023-04-30T09:37:18;99565.66;;;14.76;100.00
24154;BME280;12312;53.362;-1.518;2023-04-30T09:40:03;99562.13;;;14.96;100.00
24154;BME280;12312;53.362;-1.518;2023-04-30T09:42:58;99560.41;;;14.95;100.00
24154;BME280;12312;53.362;-1.518;2023-04-30T09:45:44;99571.47;;;15.02;100.00
24154;BME280;12312;53.362;-1.518;2023-04-30T09:48:31;99563.22;;;14.42;100.00
24154;BME280;12312;53.362;-1.518;2023-04-30T09:51:15;99563.13;;;14.21;100.00
24154;BME280;12312;53.362;-1.518;2023-04-30T09:54:02;99565.06;;;14.19;100.00
24154;BME280;12312;53.362;-1.518;2023-04-30T09:56:47;99556.59;;;14.03;100.00
24154;BME280;12312;53.362;-1.518;2023-04-30T09:59:33;99557.66;;;14.11;100.00
24154;BME280;12312;53.362;-1.518;2023-04-30T10:02:23;99561.66;;;14.28;100.00
24154;BME280;12312;53.362;-1.518;2023-04-30T10:05:08;99563.56;;;14.37;100.00
24154;BME280;12312;53.362;-1.518;2023-04-30T10:07:53;99557.16;;;14.28;100.00
24154;BME280;12312;53.362;-1.518;2023-04-30T10:10:39;99556.56;;;14.25;100.00
24154;BME280;12312;53.362;-1.518;2023-04-30T10:13:25;99550.72;;;14.20;100.00
24154;BME280;12312;53.362;-1.518;2023-04-30T10:16:29;99559.22;;;14.36;100.00
24154;BME280;12312;53.362;-1.518;2023-04-30T10:19:24;99560.16;;;14.46;100.00
24154;BME280;12312;53.362;-1.518;2023-04-30T10:22:09;99556.69;;;14.23;100.00
24154;BME280;12312;53.362;-1.518;2023-04-30T10:24:54;99561.16;;;14.23;100.00
24154;BME280;12312;53.362;-1.518;2023-04-30T10:27:38;99556.97;;;14.52;100.00
24154;BME280;12312;53.362;-1.518;2023-04-30T10:30:23;99555.69;;;14.67;100.00
24154;BME280;12312;53.362;-1.518;2023-04-30T10:36:05;99553.47;;;14.72;100.00
24154;BME280;12312;53.362;-1.518;2023-04-30T10:38:52;99557.16;;;14.60;100.00
24154;BME280;12312;53.362;-1.518;2023-04-30T10:41:37;99552.13;;;14.46;100.00
24154;BME280;12312;53.362;-1.518;2023-04-30T10:44:21;99550.38;;;14.56;100.00
24154;BME280;12312;53.362;-1.518;2023-04-30T10:47:06;99549.47;;;14.35;100.00
24154;BME280;12312;53.362;-1.518;2023-04-30T10:49:50;99547.44;;;14.59;100.00
24154;BME280;12312;53.362;-1.518;2023-04-30T10:52:37;99546.44;;;14.60;100.00
24154;BME280;12312;53.362;-1.518;2023-04-30T10:55:21;99547.06;;;14.21;100.00
24154;BME280;12312;53.362;-1.518;2023-04-30T10:58:25;99546.44;;;14.40;100.00
24154;BME280;12312;53.362;-1.518;2023-04-30T11:01:14;99545.44;;;14.41;97.32
24154;BME280;12312;53.362;-1.518;2023-04-30T11:04:09;99537.72;;;14.58;99.10
24154;BME280;12312;53.362;-1.518;2023-04-30T11:07:07;99538.25;;;14.73;98.91
24154;BME280;12312;53.362;-1.518;2023-04-30T11:09:55;99535.56;;;14.52;98.33
24154;BME280;12312;53.362;-1.518;2023-04-30T11:12:41;99525.16;;;14.27;100.00
24154;BME280;12312;53.362;-1.518;2023-04-30T11:15:39;99532.75;;;14.00;100.00
24154;BME280;12312;53.362;-1.518;2023-04-30T11:18:26;99521.41;;;14.18;100.00
24154;BME280;12312;53.362;-1.518;2023-04-30T11:21:11;99521.09;;;13.90;100.00
24154;BME280;12312;53.362;-1.518;2023-04-30T11:24:02;99512.22;;;13.67;100.00
24154;BME280;12312;53.362;-1.518;2023-04-30T11:27:03;99511.63;;;13.75;100.00
24154;BME280;12312;53.362;-1.518;2023-04-30T11:29:49;99504.56;;;13.74;100.00
24154;BME280;12312;53.362;-1.518;2023-04-30T11:32:38;99509.34;;;14.24;100.00
24154;BME280;12312;53.362;-1.518;2023-04-30T11:35:22;99502.44;;;14.10;100.00
24154;BME280;12312;53.362;-1.518;2023-04-30T11:38:08;99504.44;;;14.40;100.00
24154;BME280;12312;53.362;-1.518;2023-04-30T11:40:52;99491.19;;;15.00;98.15
24154;BME280;12312;53.362;-1.518;2023-04-30T11:43:38;99498.19;;;15.12;96.99
24154;BME280;12312;53.362;-1.518;2023-04-30T11:46:23;99501.72;;;14.92;99.30
24154;BME280;12312;53.362;-1.518;2023-04-30T11:49:07;99505.31;;;14.82;100.00
24154;BME280;12312;53.362;-1.518;2023-04-30T11:51:51;99507.75;;;15.05;100.00
24154;BME280;12312;53.362;-1.518;2023-04-30T11:54:36;99505.22;;;14.72;100.00
24154;BME280;12312;53.362;-1.518;2023-04-30T11:57:20;99502.16;;;14.56;100.00
24154;BME280;12312;53.362;-1.518;2023-04-30T12:00:12;99499.63;;;14.75;99.06
24154;BME280;12312;53.362;-1.518;2023-04-30T12:02:58;99502.97;;;14.88;100.00
24154;BME280;12312;53.362;-1.518;2023-04-30T12:05:45;99500.41;;;14.87;100.00
24154;BME280;12312;53.362;-1.518;2023-04-30T12:08:29;99497.44;;;15.10;99.12
24154;BME280;12312;53.362;-1.518;2023-04-30T12:11:28;99494.78;;;15.10;97.48
24154;BME280;12312;53.362;-1.518;2023-04-30T12:14:12;99497.66;;;15.18;98.53
24154;BME280;12312;53.362;-1.518;2023-04-30T12:16:58;99504.56;;;15.41;98.50
24154;BME280;12312;53.362;-1.518;2023-04-30T12:19:42;99488.47;;;15.41;97.85
24154;BME280;12312;53.362;-1.518;2023-04-30T12:22:27;99490.25;;;15.61;97.27
24154;BME280;12312;53.362;-1.518;2023-04-30T12:25:14;99480.75;;;16.07;98.27
24154;BME280;12312;53.362;-1.518;2023-04-30T12:27:58;99481.38;;;16.58;94.80
24154;BME280;12312;53.362;-1.518;2023-04-30T12:30:42;99481.31;;;16.20;94.05
24154;BME280;12312;53.362;-1.518;2023-04-30T12:33:29;99467.25;;;16.56;95.42
24154;BME280;12312;53.362;-1.518;2023-04-30T12:36:14;99463.56;;;16.57;92.93
24154;BME280;12312;53.362;-1.518;2023-04-30T12:39:05;99459.03;;;17.22;91.63
24154;BME280;12312;53.362;-1.518;2023-04-30T12:41:50;99449.38;;;17.66;83.81
24154;BME280;12312;53.362;-1.518;2023-04-30T12:44:42;99451.28;;;17.56;84.58
24154;BME280;12312;53.362;-1.518;2023-04-30T12:47:28;99451.91;;;17.31;83.34
24154;BME280;12312;53.362;-1.518;2023-04-30T12:50:12;99458.88;;;16.68;86.31
24154;BME280;12312;53.362;-1.518;2023-04-30T12:53:01;99453.63;;;16.67;88.97
24154;BME280;12312;53.362;-1.518;2023-04-30T12:58:54;99453.63;;;16.86;86.10
24154;BME280;12312;53.362;-1.518;2023-04-30T13:01:44;99449.13;;;16.67;83.62
24154;BME280;12312;53.362;-1.518;2023-04-30T13:04:29;99459.19;;;16.46;85.75
24154;BME280;12312;53.362;-1.518;2023-04-30T13:07:14;99461.13;;;16.82;85.69
24154;BME280;12312;53.362;-1.518;2023-04-30T13:09:58;99457.91;;;16.60;86.24
24154;BME280;12312;53.362;-1.518;2023-04-30T13:12:42;99460.28;;;16.25;90.45
24154;BME280;12312;53.362;-1.518;2023-04-30T13:15:26;99452.56;;;15.72;94.00
24154;BME280;12312;53.362;-1.518;2023-04-30T13:18:10;99447.34;;;15.80;98.57
24154;BME280;12312;53.362;-1.518;2023-04-30T13:20:54;99441.13;;;15.70;98.15
24154;BME280;12312;53.362;-1.518;2023-04-30T13:23:38;99442.53;;;15.74;96.75
24154;BME280;12312;53.362;-1.518;2023-04-30T13:26:23;99444.78;;;15.69;96.02
24154;BME280;12312;53.362;-1.518;2023-04-30T13:29:07;99446.97;;;15.45;95.80
24154;BME280;12312;53.362;-1.518;2023-04-30T13:31:52;99458.50;;;14.86;97.89
24154;BME280;12312;53.362;-1.518;2023-04-30T13:34:36;99451.38;;;14.75;100.00
24154;BME280;12312;53.362;-1.518;2023-04-30T13:37:20;99448.03;;;15.03;100.00
24154;BME280;12312;53.362;-1.518;2023-04-30T13:40:07;99450.19;;;15.09;99.68
24154;BME280;12312;53.362;-1.518;2023-04-30T13:42:52;99444.47;;;14.93;100.00
24154;BME280;12312;53.362;-1.518;2023-04-30T13:45:36;99440.88;;;14.83;100.00
24154;BME280;12312;53.362;-1.518;2023-04-30T13:48:20;99450.50;;;14.65;100.00
24154;BME280;12312;53.362;-1.518;2023-04-30T13:51:04;99444.88;;;14.68;100.00
24154;BME280;12312;53.362;-1.518;2023-04-30T13:53:48;99447.09;;;14.63;100.00
24154;BME280;12312;53.362;-1.518;2023-04-30T13:56:32;99454.16;;;14.64;100.00
24154;BME280;12312;53.362;-1.518;2023-04-30T13:59:17;99442.63;;;14.32;99.84
24154;BME280;12312;53.362;-1.518;2023-04-30T14:02:01;99449.25;;;14.17;100.00
24154;BME280;12312;53.362;-1.518;2023-04-30T14:04:46;99434.56;;;14.43;100.00
24154;BME280;12312;53.362;-1.518;2023-04-30T14:07:31;99438.50;;;14.28;100.00
24154;BME280;12312;53.362;-1.518;2023-04-30T14:10:15;99436.81;;;14.27;100.00
24154;BME280;12312;53.362;-1.518;2023-04-30T14:12:59;99428.78;;;14.27;100.00
24154;BME280;12312;53.362;-1.518;2023-04-30T14:15:43;99439.50;;;14.16;100.00
24154;BME280;12312;53.362;-1.518;2023-04-30T14:18:27;99435.69;;;14.29;100.00
24154;BME280;12312;53.362;-1.518;2023-04-30T14:21:11;99420.88;;;14.25;100.00
24154;BME280;12312;53.362;-1.518;2023-04-30T14:23:55;99425.97;;;14.28;100.00
24154;BME280;12312;53.362;-1.518;2023-04-30T14:26:39;99427.22;;;14.13;100.00
24154;BME280;12312;53.362;-1.518;2023-04-30T14:29:25;99409.72;;;14.41;100.00
24154;BME280;12312;53.362;-1.518;2023-04-30T14:32:11;99416.56;;;14.34;100.00
24154;BME280;12312;53.362;-1.518;2023-04-30T14:34:56;99408.91;;;14.29;100.00
24154;BME280;12312;53.362;-1.518;2023-04-30T14:37:41;99411.47;;;14.31;100.00
24154;BME280;12312;53.362;-1.518;2023-04-30T14:40:25;99416.69;;;14.32;100.00
24154;BME280;12312;53.362;-1.518;2023-04-30T14:43:10;99402.28;;;14.24;100.00